createdAt,value
2022-08-02T00:00:37.502Z,68.79
2022-08-02T00:03:04.255Z,70.26
2022-08-02T00:05:30.879Z,69.27
2022-08-02T00:07:57.559Z,69.59
2022-08-02T00:10:24.235Z,70.40
2022-08-02T00:12:53.258Z,71.70
2022-08-02T00:15:20.008Z,70.55
2022-08-02T00:17:47.345Z,71.43
2022-08-02T00:20:18.312Z,72.11
2022-08-02T00:22:44.943Z,71.56
2022-08-02T00:25:16.233Z,71.24
2022-08-02T00:27:43.130Z,71.11
2022-08-02T00:30:10.294Z,71.75
2022-08-02T00:32:37.038Z,71.86
2022-08-02T00:35:03.989Z,71.32
2022-08-02T00:37:30.612Z,72.63
2022-08-02T00:39:57.481Z,72.32
2022-08-02T00:42:24.185Z,71.82
2022-08-02T00:44:52.100Z,71.22
2022-08-02T00:47:19.821Z,71.82
2022-08-02T00:49:48.440Z,72.50
2022-08-02T00:52:15.180Z,72.78
2022-08-02T00:54:42.100Z,72.02
2022-08-02T00:57:08.887Z,72.61
2022-08-02T00:59:35.550Z,72.07
2022-08-02T01:02:02.264Z,72.26
2022-08-02T01:04:31.197Z,72.13
2022-08-02T01:10:45.875Z,72.02
2022-08-02T01:13:12.399Z,73.51
2022-08-02T01:15:50.455Z,73.56
2022-08-02T01:18:31.224Z,73.52
2022-08-02T01:21:09.076Z,72.47
2022-08-02T01:24:03.079Z,72.67
2022-08-02T01:26:53.331Z,73.39
2022-08-02T01:29:26.743Z,73.01
2022-08-02T01:31:59.697Z,74.48
2022-08-02T01:34:29.773Z,73.79
2022-08-02T01:37:11.111Z,74.00
2022-08-02T01:39:39.379Z,74.08
2022-08-02T01:42:06.706Z,73.72
2022-08-02T01:44:37.385Z,74.58
2022-08-02T01:47:09.440Z,74.20
2022-08-02T01:49:39.837Z,74.35
2022-08-02T01:52:23.123Z,73.80
2022-08-02T01:55:01.731Z,74.61
2022-08-02T01:57:33.448Z,75.18
2022-08-02T02:00:08.584Z,74.26
2022-08-02T02:02:38.443Z,74.21
2022-08-02T02:05:06.428Z,74.09
2022-08-02T02:07:36.346Z,74.14
2022-08-02T02:10:04.769Z,74.54
2022-08-02T02:12:34.876Z,75.36
2022-08-02T02:15:04.638Z,74.82
2022-08-02T02:17:52.639Z,74.81
2022-08-02T02:20:20.195Z,75.52
2022-08-02T02:22:49.772Z,74.73
2022-08-02T02:25:19.085Z,75.18
2022-08-02T02:28:00.739Z,74.89
2022-08-02T02:30:29.310Z,75.35
2022-08-02T02:32:59.968Z,75.29
2022-08-02T02:35:36.906Z,74.91
2022-08-02T02:38:05.682Z,74.98
2022-08-02T02:40:33.618Z,75.30
2022-08-02T02:43:01.774Z,75.17
2022-08-02T02:45:31.910Z,75.50
2022-08-02T02:48:02.112Z,75.50
2022-08-02T02:50:28.939Z,75.76
2022-08-02T02:52:56.823Z,75.16
2022-08-02T02:55:25.499Z,75.02
2022-08-02T02:57:55.036Z,75.25
2022-08-02T03:00:42.785Z,75.27
2022-08-02T03:03:09.687Z,75.63
2022-08-02T03:05:36.590Z,75.64
2022-08-02T03:08:03.457Z,75.15
2022-08-02T03:10:30.306Z,75.34
2022-08-02T03:12:58.611Z,75.43
2022-08-02T03:15:27.889Z,75.00
2022-08-02T03:17:54.954Z,75.15
2022-08-02T03:20:24.081Z,75.95
2022-08-02T03:22:51.002Z,75.79
2022-08-02T03:25:18.230Z,76.63
2022-08-02T03:27:45.266Z,76.18
2022-08-02T03:30:13.340Z,76.22
2022-08-02T03:32:41.955Z,75.92
2022-08-02T03:35:12.673Z,76.40
2022-08-02T03:37:40.534Z,76.35
2022-08-02T03:40:10.958Z,76.60
2022-08-02T03:42:40.086Z,76.53
2022-08-02T03:45:09.295Z,76.87
2022-08-02T03:47:39.425Z,76.72
2022-08-02T03:50:08.502Z,76.53
2022-08-02T03:52:38.831Z,77.36
2022-08-02T03:55:05.693Z,77.11
2022-08-02T03:57:32.570Z,77.99
2022-08-02T03:59:59.145Z,77.59
2022-08-02T04:02:25.779Z,77.21
2022-08-02T04:04:53.890Z,77.87
2022-08-02T04:08:36.353Z,77.93
2022-08-02T04:10:10.813Z,77.66
2022-08-02T04:12:39.758Z,77.18
2022-08-02T04:15:07.838Z,77.47
2022-08-02T04:17:40.663Z,77.55
2022-08-02T04:20:14.012Z,77.84
2022-08-02T04:22:47.778Z,77.33
2022-08-02T04:25:17.339Z,76.91
2022-08-02T04:27:50.510Z,76.47
2022-08-02T04:30:19.003Z,76.83
2022-08-02T04:32:46.092Z,76.44
2022-08-02T04:35:21.004Z,76.07
2022-08-02T04:38:08.668Z,75.94
2022-08-02T04:40:35.428Z,76.27
2022-08-02T04:43:02.001Z,76.06
2022-08-02T04:45:30.661Z,75.77
2022-08-02T04:48:05.931Z,75.65
2022-08-02T04:50:33.507Z,75.51
2022-08-02T04:53:00.102Z,74.93
2022-08-02T04:55:28.987Z,74.71
2022-08-02T04:57:57.389Z,74.70
2022-08-02T05:03:10.951Z,74.71
2022-08-02T05:05:38.287Z,74.70
2022-08-02T05:08:05.375Z,74.47
2022-08-02T05:10:31.912Z,74.30
2022-08-02T05:12:58.342Z,74.06
2022-08-02T05:15:24.910Z,73.99
2022-08-02T05:17:54.076Z,73.86
2022-08-02T05:20:20.673Z,73.56
2022-08-02T05:22:47.558Z,73.73
2022-08-02T05:25:14.676Z,73.38
2022-08-02T05:27:41.411Z,73.41
2022-08-02T05:30:08.667Z,72.98
2022-08-02T05:32:35.923Z,72.56
2022-08-02T05:35:03.270Z,72.68
2022-08-02T05:37:32.315Z,72.89
2022-08-02T05:40:00.811Z,72.81
2022-08-02T05:42:31.047Z,73.09
2022-08-02T05:44:57.544Z,73.35
2022-08-02T05:47:24.259Z,72.82
2022-08-02T05:49:50.895Z,72.01
2022-08-02T05:52:19.127Z,72.11
2022-08-02T05:55:07.467Z,72.05
2022-08-02T05:58:01.102Z,71.12
2022-08-02T06:00:31.528Z,71.04
2022-08-02T06:03:09.197Z,70.85
2022-08-02T06:05:41.374Z,70.96
2022-08-02T06:08:10.256Z,70.75
2022-08-02T06:10:38.638Z,70.15
2022-08-02T06:13:14.368Z,69.88
2022-08-02T06:15:52.530Z,69.88
2022-08-02T06:18:28.069Z,69.74
2022-08-02T06:20:58.666Z,69.45
2022-08-02T06:23:30.420Z,70.24
2022-08-02T06:25:58.513Z,70.28
2022-08-02T06:28:26.619Z,70.14
2022-08-02T06:30:54.476Z,70.17
2022-08-02T06:33:22.253Z,69.48
2022-08-02T06:36:04.783Z,70.26
2022-08-02T06:38:41.464Z,69.47
2022-08-02T06:41:14.659Z,69.17
2022-08-02T06:43:53.497Z,67.46
2022-08-02T06:47:10.097Z,66.28
2022-08-02T06:49:07.401Z,64.76
2022-08-02T06:51:34.285Z,65.53
2022-08-02T06:54:00.945Z,64.05
2022-08-02T06:56:27.493Z,63.13
2022-08-02T06:58:53.953Z,61.91
2022-08-02T07:01:20.691Z,61.20
2022-08-02T07:03:47.369Z,61.27
2022-08-02T07:06:14.069Z,60.90
2022-08-02T07:08:40.739Z,61.19
2022-08-02T07:11:09.114Z,61.48
2022-08-02T07:13:39.655Z,62.29
2022-08-02T07:16:07.493Z,63.22
2022-08-02T07:18:34.581Z,63.99
2022-08-02T07:21:01.068Z,62.84
2022-08-02T07:23:27.605Z,64.28
2022-08-02T07:26:02.340Z,63.65
2022-08-02T07:28:33.819Z,64.32
2022-08-02T07:31:00.360Z,62.08
2022-08-02T07:33:37.740Z,61.73
2022-08-02T07:36:06.117Z,60.79
2022-08-02T07:38:35.441Z,61.14
2022-08-02T07:41:04.316Z,60.30
2022-08-02T07:43:31.434Z,58.99
2022-08-02T07:46:00.769Z,58.07
2022-08-02T07:48:27.707Z,57.00
2022-08-02T07:50:54.373Z,56.94
2022-08-02T07:53:50.291Z,55.58
2022-08-02T07:56:09.870Z,55.24
2022-08-02T07:58:36.338Z,53.95
2022-08-02T08:01:02.901Z,53.99
2022-08-02T08:03:29.545Z,54.19
2022-08-02T08:05:56.138Z,53.92
2022-08-02T08:08:22.618Z,54.32
2022-08-02T08:10:49.263Z,53.06
2022-08-02T08:13:16.311Z,53.45
2022-08-02T08:15:51.799Z,52.13
2022-08-02T08:18:19.919Z,53.39
2022-08-02T08:20:47.443Z,52.85
2022-08-02T08:23:13.948Z,50.96
2022-08-02T08:25:42.121Z,52.18
2022-08-02T08:28:08.747Z,52.09
2022-08-02T08:30:35.325Z,52.46
2022-08-02T08:33:02.150Z,52.26
2022-08-02T08:35:28.897Z,52.60
2022-08-02T08:37:55.430Z,52.80
2022-08-02T08:40:22.154Z,52.57
2022-08-02T08:42:51.030Z,51.28
2022-08-02T08:45:18.198Z,51.51
2022-08-02T08:47:51.624Z,50.72
2022-08-02T08:50:25.159Z,49.89
2022-08-02T08:53:01.685Z,48.52
2022-08-02T08:55:29.839Z,48.41
2022-08-02T08:57:59.455Z,47.67
2022-08-02T09:00:27.480Z,47.27
2022-08-02T09:02:54.331Z,46.11
2022-08-02T09:05:20.871Z,44.78
2022-08-02T09:07:49.176Z,45.68
2022-08-02T09:10:38.922Z,44.74
2022-08-02T09:13:37.651Z,44.00
2022-08-02T09:16:11.717Z,44.50
2022-08-02T09:18:43.719Z,43.81
2022-08-02T09:21:10.520Z,43.64
2022-08-02T09:23:42.609Z,42.97
2022-08-02T09:26:17.466Z,42.89
2022-08-02T09:28:49.615Z,41.93
2022-08-02T09:31:18.462Z,42.30
2022-08-02T09:33:50.966Z,41.35
2022-08-02T09:36:22.519Z,41.26
2022-08-02T09:38:57.343Z,39.85
2022-08-02T09:41:27.148Z,41.25
2022-08-02T09:44:04.482Z,40.49
2022-08-02T09:46:38.535Z,40.23
2022-08-02T09:49:09.588Z,38.84
2022-08-02T09:51:49.240Z,38.04
2022-08-02T09:54:19.992Z,38.21
2022-08-02T09:56:52.462Z,37.26
2022-08-02T09:59:21.470Z,36.64
2022-08-02T10:01:51.235Z,38.44
2022-08-02T10:04:52.530Z,38.27
2022-08-02T10:07:21.629Z,37.14
2022-08-02T10:09:49.400Z,36.06
2022-08-02T10:12:16.105Z,34.76
2022-08-02T10:14:43.945Z,34.45
2022-08-02T10:17:10.884Z,33.76
2022-08-02T10:20:02.036Z,33.57
2022-08-02T10:22:25.225Z,35.16
2022-08-02T10:24:52.488Z,34.71
2022-08-02T10:27:20.991Z,34.74
2022-08-02T10:29:54.195Z,34.49
2022-08-02T10:32:28.552Z,35.20
2022-08-02T10:35:18.917Z,34.67
2022-08-02T10:37:54.182Z,34.53
2022-08-02T10:40:24.104Z,34.37
2022-08-02T10:43:01.288Z,33.87
2022-08-02T10:45:28.443Z,33.31
2022-08-02T10:48:00.555Z,32.18
2022-08-02T10:50:46.672Z,33.19
2022-08-02T10:53:23.894Z,33.37
2022-08-02T10:55:50.803Z,32.99
2022-08-02T10:58:26.256Z,32.50
2022-08-02T11:00:57.500Z,33.11
2022-08-02T11:03:39.496Z,31.86
2022-08-02T11:06:25.098Z,32.93
2022-08-02T11:09:33.418Z,31.84
2022-08-02T11:12:15.113Z,32.04
2022-08-02T11:14:44.174Z,32.59
2022-08-02T11:17:17.541Z,32.06
2022-08-02T11:20:12.286Z,31.63
2022-08-02T11:22:40.074Z,30.95
2022-08-02T11:25:24.038Z,30.90
2022-08-02T11:27:51.337Z,31.72
2022-08-02T11:30:18.031Z,31.76
2022-08-02T11:32:44.644Z,31.54
2022-08-02T11:35:11.307Z,31.62
2022-08-02T11:37:43.212Z,30.39
2022-08-02T11:40:19.660Z,30.62
2022-08-02T11:42:50.591Z,30.82
2022-08-02T11:45:21.027Z,30.08
2022-08-02T11:47:50.813Z,29.89
2022-08-02T11:50:18.136Z,29.09
2022-08-02T11:52:44.754Z,29.94
2022-08-02T11:55:12.023Z,29.75
2022-08-02T11:58:03.116Z,29.33
2022-08-02T12:00:30.345Z,29.65
2022-08-02T12:03:07.168Z,29.08
2022-08-02T12:06:05.209Z,28.73
2022-08-02T12:08:25.299Z,27.93
2022-08-02T12:10:52.580Z,27.83
2022-08-02T12:13:19.042Z,27.63
2022-08-02T12:15:47.102Z,28.81
2022-08-02T12:18:37.615Z,28.88
2022-08-02T12:21:20.338Z,28.01
2022-08-02T12:23:59.571Z,28.25
2022-08-02T12:26:27.541Z,28.63
2022-08-02T12:28:58.604Z,28.04
2022-08-02T12:31:56.475Z,27.14
2022-08-02T12:34:31.981Z,27.86
2022-08-02T12:37:07.101Z,27.56
2022-08-02T12:39:43.210Z,28.01
2022-08-02T12:42:12.189Z,28.03
2022-08-02T12:44:55.299Z,28.36
2022-08-02T12:47:22.074Z,28.19
2022-08-02T12:50:14.942Z,27.48
2022-08-02T12:52:41.563Z,27.75
2022-08-02T12:55:16.607Z,27.84
2022-08-02T12:57:54.994Z,26.85
2022-08-02T13:00:58.665Z,26.82
2022-08-02T13:04:07.954Z,26.50
2022-08-02T13:06:40.880Z,27.14
2022-08-02T13:08:59.567Z,27.30
2022-08-02T13:11:27.161Z,26.88
2022-08-02T13:13:53.997Z,27.43
2022-08-02T13:16:31.247Z,27.06
2022-08-02T13:18:58.354Z,27.19
2022-08-02T13:21:41.354Z,27.59
2022-08-02T13:24:32.890Z,27.02
2022-08-02T13:27:05.182Z,26.56
2022-08-02T13:29:38.416Z,26.68
2022-08-02T13:32:05.749Z,26.98
2022-08-02T13:34:32.453Z,27.29
2022-08-02T13:36:59.108Z,27.98
2022-08-02T13:39:25.614Z,27.53
2022-08-02T13:41:55.081Z,27.29
2022-08-02T13:44:21.821Z,27.44
2022-08-02T13:46:48.404Z,27.05
2022-08-02T13:49:19.795Z,27.23
2022-08-02T13:51:47.577Z,26.71
2022-08-02T13:54:17.459Z,26.47
2022-08-02T13:56:44.574Z,26.71
2022-08-02T13:59:54.924Z,26.37
2022-08-02T14:01:59.152Z,26.73
2022-08-02T14:04:26.569Z,26.86
2022-08-02T14:06:53.955Z,27.52
2022-08-02T14:09:20.820Z,27.51
2022-08-02T14:11:47.734Z,27.68
2022-08-02T14:14:16.927Z,28.06
2022-08-02T14:16:47.076Z,28.21
2022-08-02T14:19:16.039Z,27.69
2022-08-02T14:21:46.632Z,27.55
2022-08-02T14:24:17.958Z,26.81
2022-08-02T14:26:45.848Z,26.97
2022-08-02T14:29:12.905Z,26.74
2022-08-02T14:31:43.950Z,26.44
2022-08-02T14:34:12.039Z,26.84
2022-08-02T14:36:39.066Z,27.36
2022-08-02T14:39:05.770Z,27.50
2022-08-02T14:41:33.897Z,27.28
2022-08-02T14:44:20.287Z,27.15
2022-08-02T14:46:46.848Z,26.34
2022-08-02T14:49:14.382Z,26.49
2022-08-02T14:51:51.615Z,25.90
2022-08-02T14:54:18.372Z,26.00
2022-08-02T14:56:48.250Z,25.89
2022-08-02T14:59:15.445Z,25.90
2022-08-02T15:01:44.379Z,25.18
2022-08-02T15:04:10.975Z,25.68
2022-08-02T15:06:37.456Z,25.40
2022-08-02T15:09:04.013Z,24.87
2022-08-02T15:11:30.734Z,24.79
2022-08-02T15:14:15.195Z,24.33
2022-08-02T15:16:55.518Z,24.79
2022-08-02T15:19:23.315Z,24.39
2022-08-02T15:21:54.778Z,24.33
2022-08-02T15:24:23.568Z,21.78
2022-08-02T15:26:50.769Z,20.72
2022-08-02T15:29:18.181Z,20.23
2022-08-02T15:31:47.286Z,18.80
2022-08-02T15:34:14.200Z,17.38
2022-08-02T15:36:45.259Z,17.73
2022-08-02T15:39:12.415Z,17.10
2022-08-02T15:41:39.055Z,15.71
2022-08-02T15:44:08.528Z,16.82
2022-08-02T15:46:36.028Z,15.07
2022-08-02T15:49:02.641Z,15.43
2022-08-02T15:51:31.980Z,15.65
2022-08-02T15:53:58.523Z,14.43
2022-08-02T15:56:25.226Z,14.63
2022-08-02T15:58:58.696Z,15.19
2022-08-02T16:01:25.926Z,15.61
2022-08-02T16:04:06.372Z,16.84
2022-08-02T16:06:33.216Z,17.00
2022-08-02T16:08:59.658Z,16.32
2022-08-02T16:11:26.199Z,15.83
2022-08-02T16:13:55.550Z,14.94
2022-08-02T16:16:27.376Z,15.29
2022-08-02T16:18:54.891Z,15.38
2022-08-02T16:21:23.461Z,14.23
2022-08-02T16:24:01.232Z,13.79
2022-08-02T16:26:30.478Z,12.67
2022-08-02T16:28:57.277Z,13.01
2022-08-02T16:31:24.074Z,12.60
2022-08-02T16:33:50.669Z,14.21
2022-08-02T16:36:24.526Z,16.38
2022-08-02T16:38:54.077Z,17.43
2022-08-02T16:41:21.221Z,17.82
2022-08-02T16:43:47.778Z,18.45
2022-08-02T16:46:14.463Z,19.80
2022-08-02T16:48:41.497Z,20.95
2022-08-02T16:51:18.495Z,21.79
2022-08-02T16:53:59.737Z,23.68
2022-08-02T16:56:28.536Z,23.65
2022-08-02T16:58:55.383Z,22.99
2022-08-02T17:01:28.067Z,22.52
2022-08-02T17:04:16.471Z,23.01
2022-08-02T17:06:47.973Z,23.31
2022-08-02T17:10:01.880Z,25.06
2022-08-02T17:12:06.453Z,24.08
2022-08-02T17:14:42.018Z,25.13
2022-08-02T17:17:22.558Z,25.18
2022-08-02T17:20:00.878Z,26.81
2022-08-02T17:22:27.373Z,25.34
2022-08-02T17:24:53.868Z,26.17
2022-08-02T17:27:20.454Z,26.30
2022-08-02T17:29:46.950Z,26.07
2022-08-02T17:32:15.264Z,26.56
2022-08-02T17:34:49.081Z,26.99
2022-08-02T17:37:23.403Z,26.05
2022-08-02T17:39:51.647Z,27.53
2022-08-02T17:42:19.640Z,26.82
2022-08-02T17:44:49.186Z,26.72
2022-08-02T17:47:33.467Z,27.54
2022-08-02T17:50:09.655Z,27.82
2022-08-02T17:52:50.105Z,27.67
2022-08-02T17:55:19.726Z,27.90
2022-08-02T17:57:58.206Z,28.65
2022-08-02T18:00:33.854Z,28.26
2022-08-02T18:03:02.033Z,27.74
2022-08-02T18:05:39.385Z,28.26
2022-08-02T18:08:08.895Z,28.44
2022-08-02T18:10:35.545Z,28.93
2022-08-02T18:13:03.610Z,29.17
2022-08-02T18:15:32.606Z,28.97
2022-08-02T18:17:59.681Z,29.44
2022-08-02T18:20:26.197Z,29.34
2022-08-02T18:22:58.433Z,29.78
2022-08-02T18:25:36.571Z,29.89
2022-08-02T18:28:10.496Z,29.90
2022-08-02T18:30:37.053Z,30.23
2022-08-02T18:33:59.675Z,30.43
2022-08-02T18:35:52.886Z,30.26
2022-08-02T18:38:21.914Z,30.23
2022-08-02T18:40:50.784Z,31.29
2022-08-02T18:43:17.911Z,31.32
2022-08-02T18:46:05.645Z,30.97
2022-08-02T18:48:33.744Z,31.15
2022-08-02T18:51:00.245Z,31.38
2022-08-02T18:53:39.216Z,31.76
2022-08-02T18:56:19.857Z,31.78
2022-08-02T18:58:54.674Z,32.42
2022-08-02T19:01:32.398Z,32.40
2022-08-02T19:04:08.712Z,32.67
2022-08-02T19:06:35.516Z,32.34
2022-08-02T19:09:12.802Z,33.24
2022-08-02T19:11:40.783Z,32.50
2022-08-02T19:14:07.860Z,33.02
2022-08-02T19:16:37.511Z,33.18
2022-08-02T19:19:07.313Z,34.06
2022-08-02T19:22:18.528Z,33.45
2022-08-02T19:24:20.679Z,33.95
2022-08-02T19:26:51.893Z,34.40
2022-08-02T19:29:25.141Z,34.78
2022-08-02T19:32:41.472Z,35.10
2022-08-02T19:34:53.744Z,34.71
2022-08-02T19:37:20.665Z,35.13
2022-08-02T19:39:47.716Z,34.84
2022-08-02T19:42:14.816Z,35.14
2022-08-02T19:44:44.985Z,35.36
2022-08-02T19:47:12.569Z,35.37
2022-08-02T19:49:49.016Z,35.08
2022-08-02T19:52:21.621Z,34.65
2022-08-02T19:54:55.562Z,34.92
2022-08-02T19:57:38.126Z,35.12
2022-08-02T20:00:11.240Z,35.40
2022-08-02T20:02:38.309Z,35.32
2022-08-02T20:05:16.026Z,36.25
2022-08-02T20:07:54.581Z,36.66
2022-08-02T20:10:24.966Z,37.10
2022-08-02T20:12:53.506Z,38.38
2022-08-02T20:15:20.750Z,39.01
2022-08-02T20:17:49.159Z,37.95
2022-08-02T20:20:16.845Z,37.71
2022-08-02T20:23:33.566Z,37.53
2022-08-02T20:25:50.891Z,38.08
2022-08-02T20:28:22.115Z,39.97
2022-08-02T20:30:49.408Z,39.61
2022-08-02T20:36:02.929Z,39.99
2022-08-02T20:38:29.942Z,40.15
2022-08-02T20:40:57.794Z,41.33
2022-08-02T20:43:31.070Z,41.52
2022-08-02T20:45:58.559Z,41.23
2022-08-02T20:48:29.938Z,40.54
2022-08-02T20:50:56.885Z,42.33
2022-08-02T20:53:25.997Z,41.12
2022-08-02T20:55:56.559Z,42.11
2022-08-02T20:58:26.999Z,42.39
2022-08-02T21:00:58.552Z,42.10
2022-08-02T21:03:25.602Z,42.85
2022-08-02T21:06:08.020Z,43.29
2022-08-02T21:08:34.597Z,43.20
2022-08-02T21:11:09.078Z,44.28
2022-08-02T21:16:25.639Z,44.35
2022-08-02T21:18:55.830Z,44.92
2022-08-02T21:21:26.762Z,45.33
2022-08-02T21:23:54.661Z,46.24
2022-08-02T21:26:28.279Z,45.68
2022-08-02T21:28:56.876Z,46.30
2022-08-02T21:31:24.475Z,45.85
2022-08-02T21:33:59.346Z,45.54
2022-08-02T21:36:33.109Z,46.24
2022-08-02T21:39:05.793Z,46.57
2022-08-02T21:41:39.099Z,46.85
2022-08-02T21:44:12.618Z,47.41
2022-08-02T21:46:39.145Z,47.30
2022-08-02T21:49:05.812Z,47.92
2022-08-02T21:51:34.210Z,48.19
2022-08-02T21:54:17.752Z,48.89
2022-08-02T21:56:46.029Z,49.19
2022-08-02T21:59:15.700Z,48.73
2022-08-02T22:01:52.539Z,49.76
2022-08-02T22:04:20.298Z,48.85
2022-08-02T22:06:49.077Z,48.99
2022-08-02T22:09:17.429Z,49.24
2022-08-02T22:11:44.539Z,49.89
2022-08-02T22:14:12.824Z,50.28
2022-08-02T22:16:39.407Z,49.99
2022-08-02T22:19:06.691Z,49.94
2022-08-02T22:21:46.598Z,50.75
2022-08-02T22:24:30.098Z,51.46
2022-08-02T22:26:57.879Z,50.51
2022-08-02T22:29:24.481Z,50.47
2022-08-02T22:31:52.109Z,50.82
2022-08-02T22:34:37.081Z,51.45
2022-08-02T22:40:05.973Z,51.77
2022-08-02T22:42:35.469Z,52.19
2022-08-02T22:45:08.432Z,51.44
2022-08-02T22:47:38.938Z,52.67
2022-08-02T22:50:17.594Z,52.61
2022-08-02T22:52:46.850Z,54.04
2022-08-02T22:55:17.483Z,52.44
2022-08-02T22:57:56.382Z,53.25
2022-08-02T22:58:55.696Z,40.39
2022-08-02T22:59:11.780Z,43.65
2022-08-02T23:00:31.748Z,52.84
2022-08-02T23:02:58.358Z,52.72
2022-08-02T23:05:25.197Z,52.78
2022-08-02T23:07:52.182Z,53.92
2022-08-02T23:10:21.355Z,53.93
2022-08-02T23:12:47.833Z,53.78
2022-08-02T23:15:14.289Z,54.78
2022-08-02T23:17:59.293Z,54.89
2022-08-02T23:20:25.795Z,55.46
2022-08-02T23:22:52.721Z,55.33
2022-08-02T23:25:22.413Z,55.29
2022-08-02T23:27:50.887Z,56.36
2022-08-02T23:30:18.433Z,55.12
2022-08-02T23:32:44.890Z,56.92
2022-08-02T23:35:17.242Z,56.72
2022-08-02T23:37:58.971Z,56.97
2022-08-02T23:40:39.135Z,57.13
2022-08-02T23:43:13.338Z,56.56
2022-08-02T23:45:41.374Z,55.95
2022-08-02T23:48:07.825Z,55.98
2022-08-02T23:50:34.260Z,55.96
2022-08-02T23:53:00.684Z,57.05
2022-08-02T23:55:27.135Z,56.67
2022-08-02T23:57:53.734Z,56.33
